To NAV CANADA Home Page Login to a new session Search on AWWS site Disclaimer Vers la page française équivalente Tips FAQ What's new on the site To the Forecasts and Observations / NOTAM section To "File a Flight Plan" website Publications and other links Update of the User's profile FIC Telephone Numbers My Weather Data Folder Route Weather Data Regional Weather Data Local Weather Data To the Forecasts and Observations / NOTAM section
Request Generated 10/21/2018 at 06:11:12 UTC . Weather information available at that time is displayed.

METAR/TAF

IQALUIT/NU    

METAR CYFB 210600Z 05010KT 15SM -SN SCT011 OVC062 M10/M11 A2992 RMK SC4SC4 SLP137=
SPECI CYFB 210508Z 05010KT 15SM -SN SCT012 OVC062 M10/M11 A2991 RMK SC4SC4 SLP133=
METAR CYFB 210500Z 05012KT 15SM SCT012 OVC062 M10/M11 A2991 RMK SC4SC4 SLP133=
METAR CYFB 210400Z 05010KT 15SM SCT012 OVC062 M09/M11 A2990 RMK SC4SC4 SLP129=

TAF CYFB 210547Z 2106/2206 05008KT P6SM SCT012 BKN060 TEMPO 2106/2118
P6SM -SN BKN012
FM211800 VRB03KT P6SM FEW015
BECMG 2123/2201 34007KT
RMK NXT FCST BY 211200Z=
Your time UTC time
Weather data provided by Environment Canada and NAV CANADA